Time;durP1;ratioP1;P1;durP2;ratioP2;P2;SDS_P1;SDS_P2;PMS_P1;PMS_P2;Temp;Humidity;BMP_temperature;BMP_pressure;BME280_temperature;BME280_humidity;BME280_pressure;Samples;Min_cycle;Max_cycle;Signal;HPM_P1;HPM_P2
2022/07/15 00:01:07;;;;;;;7.93;1.40;;;;;;;16.02;89.84;101036.34;5182884;28;20030;-76
2022/07/15 00:03:37;;;;;;;4.45;1.10;;;;;;;15.89;89.92;101043.16;5181927;28;20030;-75
2022/07/15 00:06:08;;;;;;;5.03;1.02;;;;;;;15.93;90.02;101038.59;5172144;28;20028;-75
2022/07/15 00:08:38;;;;;;;4.20;1.13;;;;;;;15.86;90.08;101030.13;5174976;28;20034;-75
2022/07/15 00:11:08;;;;;;;5.20;1.20;;;;;;;15.85;90.79;101038.16;5175132;28;20055;-76
2022/07/15 00:13:39;;;;;;;3.65;1.10;;;;;;;15.89;90.33;101045.81;5176830;28;20677;-75
2022/07/15 00:16:09;;;;;;;6.13;1.10;;;;;;;15.85;90.25;101032.88;5180644;28;20032;-76
2022/07/15 00:18:40;;;;;;;5.10;1.10;;;;;;;15.90;89.95;101036.13;5180450;28;20053;-75
2022/07/15 00:21:11;;;;;;;8.52;1.35;;;;;;;15.88;90.34;101030.91;5182055;28;20025;-75
2022/07/15 00:23:41;;;;;;;7.32;1.10;;;;;;;15.76;90.36;101033.31;5180662;28;20033;-75
2022/07/15 00:26:12;;;;;;;4.72;1.40;;;;;;;15.80;90.24;101027.81;5180567;28;20728;-75
2022/07/15 00:28:42;;;;;;;7.20;1.35;;;;;;;15.58;91.16;101035.09;5182577;28;20034;-75
2022/07/15 00:31:13;;;;;;;5.85;1.42;;;;;;;15.80;90.32;101033.09;5181218;28;20022;-76
2022/07/15 00:33:43;;;;;;;6.70;1.60;;;;;;;15.74;90.75;101030.75;5182267;28;20030;-76
2022/07/15 00:36:14;;;;;;;4.32;1.10;;;;;;;15.74;90.23;101037.81;5180195;28;20498;-75
2022/07/15 00:38:44;;;;;;;7.07;1.50;;;;;;;15.52;91.57;101032.72;5181964;28;20197;-76
2022/07/15 00:41:14;;;;;;;8.35;1.40;;;;;;;15.60;91.56;101041.13;5175603;28;20022;-76
2022/07/15 00:43:45;;;;;;;8.30;1.27;;;;;;;15.51;92.18;101041.56;5179980;28;20072;-75
2022/07/15 00:46:17;;;;;;;5.60;1.30;;;;;;;15.49;92.07;101047.81;5180517;28;20036;-75
2022/07/15 00:48:48;;;;;;;5.25;1.40;;;;;;;15.57;91.84;101041.25;5180099;28;20030;-76
2022/07/15 00:51:19;;;;;;;4.30;1.40;;;;;;;15.45;91.90;101043.63;5180524;28;20116;-76
2022/07/15 00:53:50;;;;;;;6.53;1.38;;;;;;;15.60;91.20;101050.78;5180404;28;20116;-76
2022/07/15 00:56:23;;;;;;;7.47;1.77;;;;;;;15.34;92.39;101044.16;5180617;28;20138;-76
2022/07/15 00:58:54;;;;;;;3.75;0.93;;;;;;;15.36;92.24;101039.66;5181533;28;20076;-75
2022/07/15 01:01:24;;;;;;;5.88;1.35;;;;;;;15.18;91.94;101040.50;5181546;28;20022;-76
2022/07/15 01:03:55;;;;;;;6.43;1.33;;;;;;;15.15;93.09;101045.91;5180376;28;20025;-76
2022/07/15 01:06:27;;;;;;;6.78;1.45;;;;;;;15.30;91.61;101042.59;5179762;28;20076;-75
2022/07/15 01:08:58;;;;;;;9.27;1.40;;;;;;;15.15;92.60;101043.28;5163764;28;20056;-75
2022/07/15 01:11:31;;;;;;;6.20;1.40;;;;;;;15.16;92.25;101047.63;5172463;28;20030;-75
2022/07/15 01:14:02;;;;;;;6.75;1.70;;;;;;;15.16;92.26;101050.25;5180163;28;20538;-75
2022/07/15 01:16:32;;;;;;;5.60;1.42;;;;;;;15.06;92.65;101043.72;5163541;28;20084;-75
2022/07/15 01:19:04;;;;;;;8.50;1.48;;;;;;;14.99;93.69;101042.28;5179725;28;20026;-74
2022/07/15 01:21:34;;;;;;;6.32;1.27;;;;;;;14.85;94.88;101043.84;5180105;28;20051;-75
2022/07/15 01:24:05;;;;;;;9.55;1.33;;;;;;;14.82;94.38;101045.75;5179630;28;20025;-76
2022/07/15 01:26:35;;;;;;;7.78;1.40;;;;;;;14.94;93.73;101046.03;5181167;28;20531;-75
2022/07/15 01:29:06;;;;;;;5.68;1.42;;;;;;;14.95;92.73;101053.00;5181246;28;20025;-76
2022/07/15 01:31:36;;;;;;;5.32;1.30;;;;;;;14.96;94.32;101047.69;5180076;28;20032;-76
2022/07/15 01:34:07;;;;;;;7.30;1.80;;;;;;;14.76;94.84;101053.94;5179613;28;20083;-75
2022/07/15 01:36:37;;;;;;;5.85;1.65;;;;;;;14.90;93.73;101053.25;5180148;28;20032;-75
2022/07/15 01:39:08;;;;;;;7.28;1.63;;;;;;;14.93;93.45;101053.09;5180803;28;20053;-75
2022/07/15 01:41:38;;;;;;;7.15;1.98;;;;;;;14.57;95.96;101050.41;5171386;28;20489;-76
2022/07/15 01:44:08;;;;;;;5.50;1.50;;;;;;;14.82;94.26;101053.66;5172962;28;20030;-76
2022/07/15 01:46:39;;;;;;;4.90;1.30;;;;;;;14.80;94.12;101052.88;5177203;28;20038;-76
2022/07/15 01:49:31;;;;;;;7.22;1.48;;;;;;;14.88;93.96;101062.97;5178548;28;20024;-76
2022/07/15 01:52:04;;;;;;;6.38;1.58;;;;;;;14.87;94.58;101056.00;5178347;28;20519;-76
2022/07/15 01:54:35;;;;;;;8.55;1.50;;;;;;;14.95;93.65;101053.88;5185524;28;20025;-76
2022/07/15 01:57:05;;;;;;;5.32;1.30;;;;;;;15.01;93.64;101055.38;5180549;28;20479;-76
2022/07/15 01:59:36;;;;;;;3.83;1.40;;;;;;;15.00;92.68;101062.41;5179437;28;20246;-75
2022/07/15 02:02:06;;;;;;;6.18;1.30;;;;;;;14.97;93.55;101065.19;5179395;28;20046;-76
2022/07/15 02:04:36;;;;;;;9.05;1.67;;;;;;;15.11;94.04;101060.16;5179328;28;20121;-76
2022/07/15 02:07:07;;;;;;;7.53;1.40;;;;;;;15.28;93.29;101056.72;5178362;28;20028;-76
2022/07/15 02:09:37;;;;;;;5.97;1.33;;;;;;;15.10;93.35;101063.72;5176476;28;20502;-76
2022/07/15 02:12:08;;;;;;;6.50;1.42;;;;;;;14.98;95.49;101053.72;5170936;28;20030;-75
2022/07/15 02:14:38;;;;;;;7.38;1.50;;;;;;;15.00;95.97;101059.78;5178684;28;20034;-76
2022/07/15 02:17:08;;;;;;;6.68;1.30;;;;;;;15.05;94.50;101057.78;5179929;28;20026;-76
2022/07/15 02:19:39;;;;;;;7.70;1.77;;;;;;;15.10;94.88;101061.06;5179919;28;20064;-75
2022/07/15 02:22:09;;;;;;;9.35;1.40;;;;;;;15.16;93.97;101066.03;5178840;28;20566;-73
2022/07/15 02:24:40;;;;;;;4.88;1.25;;;;;;;15.11;93.34;101057.50;5178543;28;20038;-75
2022/07/15 02:27:10;;;;;;;6.47;1.42;;;;;;;15.25;93.64;101052.47;5178052;28;20022;-76
2022/07/15 02:29:40;;;;;;;5.88;1.40;;;;;;;15.25;93.26;101067.41;5178645;28;20022;-75
2022/07/15 02:32:11;;;;;;;4.15;1.17;;;;;;;15.12;93.37;101061.84;5178644;28;20026;-75
2022/07/15 02:34:41;;;;;;;6.25;1.27;;;;;;;14.83;95.06;101064.94;5178966;28;20462;-75
2022/07/15 02:37:11;;;;;;;8.75;1.95;;;;;;;15.13;92.73;101066.19;5178096;28;20125;-75
2022/07/15 02:39:42;;;;;;;7.82;1.40;;;;;;;15.08;93.17;101065.56;5175756;28;20515;-76
2022/07/15 02:42:12;;;;;;;6.10;1.60;;;;;;;15.06;92.46;101066.53;5172291;28;20503;-75
2022/07/15 02:44:42;;;;;;;7.25;1.52;;;;;;;15.03;93.38;101066.69;5169611;28;20436;-75
2022/07/15 02:47:13;;;;;;;8.95;1.45;;;;;;;14.98;94.03;101063.44;5176717;28;20534;-75
2022/07/15 02:49:44;;;;;;;6.53;1.48;;;;;;;14.69;94.73;101076.16;5178269;28;20021;-76
2022/07/15 02:52:14;;;;;;;5.93;1.55;;;;;;;14.79;93.28;101067.78;5179666;28;20103;-75
2022/07/15 02:54:44;;;;;;;13.90;1.60;;;;;;;14.96;92.55;101074.00;5178766;28;20017;-76
2022/07/15 02:57:15;;;;;;;6.88;1.50;;;;;;;14.92;92.27;101084.75;5179717;28;20036;-75
2022/07/15 02:59:45;;;;;;;5.72;1.30;;;;;;;14.82;92.55;101084.31;5178172;28;20176;-76
2022/07/15 03:02:15;;;;;;;9.63;1.50;;;;;;;14.71;93.88;101080.44;5180980;28;20036;-75
2022/07/15 03:04:46;;;;;;;5.22;1.30;;;;;;;14.59;94.50;101085.41;5182596;28;20026;-76
2022/07/15 03:07:17;;;;;;;5.68;1.33;;;;;;;14.73;93.71;101089.13;5183351;28;20386;-75
2022/07/15 03:09:47;;;;;;;5.57;1.10;;;;;;;14.61;92.13;101091.44;5177459;28;20033;-75
2022/07/15 03:12:18;;;;;;;4.25;1.23;;;;;;;14.45;94.00;101087.75;5175545;28;20115;-76
2022/07/15 03:14:48;;;;;;;7.00;1.40;;;;;;;14.44;94.19;101089.53;5173765;28;20072;-75
2022/07/15 03:17:18;;;;;;;5.85;1.67;;;;;;;14.35;95.37;101091.69;5180758;28;20032;-76
2022/07/15 03:19:49;;;;;;;4.63;1.27;;;;;;;14.31;94.46;101095.38;5182166;28;20018;-76
2022/07/15 03:22:19;;;;;;;5.82;1.30;;;;;;;14.05;95.09;101099.06;5182092;28;20021;-75
2022/07/15 03:24:50;;;;;;;6.82;1.38;;;;;;;14.08;96.44;101106.81;5183834;28;20454;-76
2022/07/15 03:27:20;;;;;;;5.50;1.30;;;;;;;14.08;96.13;101109.44;5181473;28;20212;-75
2022/07/15 03:29:51;;;;;;;8.02;1.33;;;;;;;13.99;97.00;101114.22;5181827;28;20391;-76
2022/07/15 03:32:21;;;;;;;4.70;1.23;;;;;;;13.98;97.32;101109.91;5181865;28;20365;-75
2022/07/15 03:34:52;;;;;;;3.72;1.10;;;;;;;13.97;97.23;101116.94;5182512;28;20030;-75
2022/07/15 03:37:22;;;;;;;5.13;1.63;;;;;;;14.04;96.74;101120.16;5182587;28;20041;-75
2022/07/15 03:39:52;;;;;;;4.05;1.30;;;;;;;13.88;97.44;101114.66;5176063;28;20030;-75
2022/07/15 03:42:23;;;;;;;9.70;1.90;;;;;;;13.63;99.13;101110.44;5180538;28;20193;-75
2022/07/15 03:44:53;;;;;;;4.55;1.40;;;;;;;13.73;98.15;101117.06;5175227;28;20022;-75
2022/07/15 03:47:24;;;;;;;4.88;1.20;;;;;;;13.93;96.95;101114.50;5182298;28;20022;-75
2022/07/15 03:49:55;;;;;;;5.57;1.48;;;;;;;13.84;97.28;101125.34;5181406;28;20569;-75
2022/07/15 03:52:25;;;;;;;7.05;1.80;;;;;;;13.97;96.61;101123.94;5181633;28;20116;-72
2022/07/15 03:54:55;;;;;;;7.57;1.65;;;;;;;14.03;96.15;101131.56;5181054;28;20352;-72
2022/07/15 03:57:26;;;;;;;6.05;1.35;;;;;;;13.87;96.89;101117.34;5198841;23;20053;-70
2022/07/15 03:59:57;;;;;;;10.77;2.13;;;;;;;14.01;96.70;101128.16;5159662;28;20034;-72
2022/07/15 04:02:27;;;;;;;6.50;2.00;;;;;;;14.16;95.82;101115.28;5160395;28;20037;-72
2022/07/15 04:04:57;;;;;;;6.75;1.05;;;;;;;14.15;97.19;101125.81;5161349;28;20041;-72
2022/07/15 04:07:28;;;;;;;4.30;1.35;;;;;;;14.23;95.43;101121.16;5176840;28;20408;-72
2022/07/15 04:09:58;;;;;;;7.93;1.63;;;;;;;13.98;98.14;101126.53;5171831;28;20041;-72
2022/07/15 04:12:29;;;;;;;5.13;1.45;;;;;;;14.15;97.28;101120.56;5155659;28;20074;-72
2022/07/15 04:14:59;;;;;;;7.05;1.45;;;;;;;14.12;97.60;101120.69;5141439;28;20030;-72
2022/07/15 04:17:29;;;;;;;6.22;1.50;;;;;;;14.24;97.34;101120.25;5160194;28;20563;-72
2022/07/15 04:20:00;;;;;;;5.28;1.40;;;;;;;14.14;98.44;101122.34;5160214;28;20100;-72
2022/07/15 04:22:38;;;;;;;6.80;1.50;;;;;;;14.23;98.16;101122.00;5160755;28;20045;-72
2022/07/15 04:25:11;;;;;;;3.53;1.20;;;;;;;14.45;97.26;101124.59;5157661;28;20025;-72
2022/07/15 04:27:42;;;;;;;6.70;1.70;;;;;;;14.67;95.49;101126.22;5153346;28;20047;-72
2022/07/15 04:30:13;;;;;;;5.18;1.20;;;;;;;14.84;93.45;101121.94;5161959;28;20094;-71
2022/07/15 04:32:43;;;;;;;9.40;1.52;;;;;;;14.82;92.34;101121.16;5161970;28;20045;-72
2022/07/15 04:35:13;;;;;;;7.43;1.52;;;;;;;14.94;92.89;101125.00;5161139;28;20026;-72
2022/07/15 04:37:44;;;;;;;6.70;1.35;;;;;;;14.90;94.22;101129.56;5159948;28;20073;-73
2022/07/15 04:40:14;;;;;;;6.68;1.55;;;;;;;14.81;94.18;101134.38;5154619;28;20025;-73
2022/07/15 04:42:44;;;;;;;9.00;1.52;;;;;;;15.04;92.24;101128.94;5153168;28;20105;-73
2022/07/15 04:45:15;;;;;;;11.10;1.40;;;;;;;15.26;91.17;101133.19;5160252;28;20048;-73
2022/07/15 04:47:45;;;;;;;6.28;1.55;;;;;;;15.25;91.92;101136.75;5159739;28;20030;-73
2022/07/15 04:53:05;;;;;;;9.70;1.40;;;;;;;15.24;91.86;101135.03;5159858;28;20045;-73
2022/07/15 04:55:35;;;;;;;7.28;1.23;;;;;;;15.42;89.69;101134.22;5176393;28;20026;-72
2022/07/15 04:58:06;;;;;;;12.32;1.60;;;;;;;15.37;90.04;101140.63;5159039;28;20081;-69
2022/07/15 05:00:37;;;;;;;5.72;1.20;;;;;;;15.46;90.75;101146.31;5160803;28;20518;-73
2022/07/15 05:03:07;;;;;;;5.93;1.10;;;;;;;15.57;90.77;101145.81;5159556;28;20025;-73
2022/07/15 05:05:38;;;;;;;5.45;1.15;;;;;;;15.42;90.39;101146.53;5143480;28;20042;-73
2022/07/15 05:08:09;;;;;;;7.90;1.42;;;;;;;15.55;90.37;101143.22;5159053;28;20049;-73
2022/07/15 05:10:39;;;;;;;7.15;1.30;;;;;;;15.85;89.32;101144.44;5153592;28;20026;-73
2022/07/15 05:13:09;;;;;;;12.75;1.55;;;;;;;15.99;87.99;101141.13;5156469;28;20081;-73
2022/07/15 05:15:40;;;;;;;7.50;1.27;;;;;;;16.11;86.95;101141.41;5174680;28;20038;-72
2022/07/15 05:18:10;;;;;;;7.88;1.45;;;;;;;15.72;88.21;101145.94;5160525;28;20097;-73
2022/07/15 05:20:41;;;;;;;8.50;1.05;;;;;;;15.77;88.10;101146.59;5160687;28;20790;-73
2022/07/15 05:23:11;;;;;;;7.10;1.40;;;;;;;15.70;88.35;101139.88;5159509;28;20045;-73
2022/07/15 05:25:41;;;;;;;10.75;1.45;;;;;;;15.98;87.74;101148.19;5158472;28;20062;-73
2022/07/15 05:28:12;;;;;;;8.20;1.23;;;;;;;16.05;86.63;101152.22;5151654;28;20034;-73
2022/07/15 05:30:42;;;;;;;8.63;1.40;;;;;;;16.17;85.72;101151.63;5171190;28;20041;-73
2022/07/15 05:33:16;;;;;;;6.82;1.30;;;;;;;16.07;87.50;101146.88;5160739;28;20081;-73
2022/07/15 05:35:46;;;;;;;8.85;1.73;;;;;;;16.31;84.96;101154.44;5158439;28;20038;-73
2022/07/15 05:38:16;;;;;;;9.15;1.33;;;;;;;16.37;84.10;101167.34;5160392;28;20018;-73
2022/07/15 05:40:47;;;;;;;9.43;1.65;;;;;;;16.29;86.31;101160.72;5153509;28;20026;-73
2022/07/15 05:43:17;;;;;;;6.70;1.20;;;;;;;16.15;85.22;101166.69;5151099;28;20428;-73
2022/07/15 05:45:48;;;;;;;6.90;1.58;;;;;;;16.53;83.85;101163.03;5152992;28;20033;-73
2022/07/15 05:48:18;;;;;;;7.38;1.45;;;;;;;16.41;83.52;101166.25;5158810;28;20018;-73
2022/07/15 05:50:49;;;;;;;6.85;1.50;;;;;;;15.92;85.69;101166.94;5159199;28;20022;-73
2022/07/15 05:53:19;;;;;;;8.70;1.70;;;;;;;16.20;83.82;101167.31;5159947;28;20490;-72
2022/07/15 05:55:50;;;;;;;9.00;1.50;;;;;;;16.31;84.22;101172.03;5159820;28;20105;-73
2022/07/15 05:58:20;;;;;;;7.05;1.30;;;;;;;16.28;85.12;101175.72;5174225;28;20023;-73
2022/07/15 06:00:51;;;;;;;13.90;1.42;;;;;;;16.56;82.45;101178.69;5158060;28;20143;-72
2022/07/15 06:03:22;;;;;;;6.47;1.20;;;;;;;16.71;83.53;101175.28;5158498;28;20480;-73
2022/07/15 06:05:52;;;;;;;10.52;2.00;;;;;;;16.74;83.38;101176.94;5160226;28;20034;-73
2022/07/15 06:08:23;;;;;;;7.18;1.27;;;;;;;16.64;83.04;101179.19;5158231;28;20555;-72
2022/07/15 06:10:53;;;;;;;9.98;1.65;;;;;;;16.73;83.31;101185.78;5150692;28;20022;-73
2022/07/15 06:13:23;;;;;;;8.10;1.50;;;;;;;16.95;82.88;101187.25;5167661;28;20034;-73
2022/07/15 06:15:54;;;;;;;7.57;1.42;;;;;;;16.83;82.23;101186.06;5159055;28;20278;-73
2022/07/15 06:18:25;;;;;;;14.85;1.45;;;;;;;17.00;82.68;101187.84;5158254;28;20026;-73
2022/07/15 06:20:56;;;;;;;8.48;1.60;;;;;;;16.81;82.56;101187.94;5160258;28;20029;-73
2022/07/15 06:23:26;;;;;;;9.00;1.65;;;;;;;16.41;83.70;101187.38;5157864;28;20022;-72
2022/07/15 06:25:57;;;;;;;9.77;1.60;;;;;;;17.00;82.70;101198.41;5160351;28;20030;-73
2022/07/15 06:28:28;;;;;;;8.90;1.50;;;;;;;16.84;83.03;101193.06;5159250;28;20026;-73
2022/07/15 06:30:58;;;;;;;7.20;1.38;;;;;;;16.82;82.25;101192.28;5159872;28;20513;-73
2022/07/15 06:33:28;;;;;;;7.43;1.13;;;;;;;16.71;83.15;101193.75;5160318;28;20385;-74
2022/07/15 06:35:59;;;;;;;10.20;1.25;;;;;;;16.75;82.58;101192.66;5158934;28;20574;-73
2022/07/15 06:38:32;;;;;;;7.70;1.67;;;;;;;16.85;82.58;101193.91;5162141;28;20026;-73
2022/07/15 06:41:02;;;;;;;10.73;1.45;;;;;;;16.94;82.26;101196.09;5159475;28;20113;-73
2022/07/15 06:43:32;;;;;;;9.18;1.40;;;;;;;17.23;81.30;101201.56;5155022;28;20117;-72
2022/07/15 06:46:03;;;;;;;5.28;1.02;;;;;;;17.19;81.34;101194.75;5153349;28;20065;-73
2022/07/15 06:48:33;;;;;;;6.85;1.42;;;;;;;17.37;80.46;101198.22;5157307;28;20113;-72
2022/07/15 06:51:04;;;;;;;9.85;1.70;;;;;;;17.52;80.41;101200.03;5147478;28;20455;-72
2022/07/15 06:53:34;;;;;;;9.57;1.63;;;;;;;17.53;80.79;101199.09;5163065;28;20461;-73
2022/07/15 06:56:05;;;;;;;12.57;2.15;;;;;;;17.55;79.73;101197.22;5160787;28;20057;-71
2022/07/15 06:58:35;;;;;;;7.82;1.60;;;;;;;17.25;80.51;101204.97;5156910;28;20119;-73
2022/07/15 07:01:06;;;;;;;7.82;1.77;;;;;;;17.39;80.54;101205.13;5158002;28;20184;-73
2022/07/15 07:03:36;;;;;;;7.18;1.38;;;;;;;17.42;79.64;101201.47;5173899;28;20523;-73
2022/07/15 07:06:07;;;;;;;8.15;1.20;;;;;;;17.56;80.02;101199.81;5160890;28;20133;-73
2022/07/15 07:08:38;;;;;;;5.78;1.35;;;;;;;17.38;80.56;101207.84;5157064;28;20034;-73
2022/07/15 07:11:08;;;;;;;7.88;1.20;;;;;;;17.53;79.56;101205.25;5172712;28;20030;-73
2022/07/15 07:13:39;;;;;;;10.23;1.63;;;;;;;17.68;79.05;101206.22;5151998;28;20124;-73
2022/07/15 07:16:09;;;;;;;6.63;1.30;;;;;;;17.87;78.25;101209.53;5155664;28;20514;-72
2022/07/15 07:18:40;;;;;;;7.93;1.60;;;;;;;18.06;78.15;101207.59;5160780;28;20126;-73
2022/07/15 07:21:10;;;;;;;5.25;1.10;;;;;;;18.01;78.28;101212.28;5177693;28;20037;-73
2022/07/15 07:23:40;;;;;;;7.38;1.17;;;;;;;18.20;76.30;101207.66;5178503;28;20502;-73
2022/07/15 07:26:14;;;;;;;11.32;1.70;;;;;;;18.55;76.71;101209.16;5161683;28;20424;-71
2022/07/15 07:28:46;;;;;;;12.68;1.65;;;;;;;18.55;76.35;101196.78;5161429;28;20077;-73
2022/07/15 07:31:17;;;;;;;10.13;1.17;;;;;;;18.44;75.10;101206.28;5161808;28;20029;-73
2022/07/15 07:33:47;;;;;;;6.43;1.30;;;;;;;18.32;75.79;101199.06;5162314;28;20031;-73
2022/07/15 07:36:17;;;;;;;8.15;1.40;;;;;;;18.93;74.40;101195.38;5178127;28;20023;-73
2022/07/15 07:38:48;;;;;;;4.32;1.08;;;;;;;20.05;70.76;101182.97;5161549;28;20026;-73
2022/07/15 07:41:18;;;;;;;11.25;1.55;;;;;;;20.44;71.09;101177.69;5160748;28;20022;-73
2022/07/15 07:43:49;;;;;;;7.55;1.25;;;;;;;21.11;67.37;101182.84;5150735;28;20472;-74
2022/07/15 07:46:19;;;;;;;5.78;1.45;;;;;;;21.09;67.22;101174.13;5143451;28;20081;-73
2022/07/15 07:48:50;;;;;;;5.10;0.93;;;;;;;21.50;65.21;101172.06;5158846;28;20022;-73
2022/07/15 07:51:20;;;;;;;5.32;1.10;;;;;;;20.58;66.40;101176.78;5161864;28;20448;-74
2022/07/15 07:53:50;;;;;;;7.05;1.20;;;;;;;20.30;67.41;101175.09;5160306;28;20084;-73
2022/07/15 07:56:21;;;;;;;5.15;1.20;;;;;;;20.60;67.24;101178.38;5159925;28;20027;-73
2022/07/15 07:58:51;;;;;;;5.78;1.20;;;;;;;19.48;68.77;101178.66;5177425;28;20325;-73
2022/07/15 08:01:21;;;;;;;9.18;1.23;;;;;;;19.07;69.69;101180.34;5161523;28;20027;-73
2022/07/15 08:03:52;;;;;;;9.80;1.08;;;;;;;18.93;68.64;101179.47;5161333;28;20274;-73
2022/07/15 08:06:22;;;;;;;6.38;0.90;;;;;;;19.21;67.38;101174.22;5160786;28;20032;-73
2022/07/15 08:08:53;;;;;;;4.72;0.98;;;;;;;19.03;65.48;101176.19;5160835;28;20030;-73
2022/07/15 08:11:23;;;;;;;3.75;0.60;;;;;;;18.84;64.04;101178.25;5152863;28;20504;-73
2022/07/15 08:13:54;;;;;;;6.30;0.80;;;;;;;18.69;64.61;101172.16;5167607;28;20023;-73
2022/07/15 08:16:24;;;;;;;4.05;0.80;;;;;;;18.64;65.30;101174.19;5158512;28;20026;-73
2022/07/15 08:18:55;;;;;;;5.40;0.70;;;;;;;18.58;65.84;101178.09;5176944;28;20400;-73
2022/07/15 08:21:25;;;;;;;2.85;0.60;;;;;;;18.70;65.77;101177.34;5177491;28;20026;-73
2022/07/15 08:23:55;;;;;;;5.05;0.80;;;;;;;18.41;66.49;101174.69;5161048;28;20026;-73
2022/07/15 08:26:26;;;;;;;3.55;0.90;;;;;;;19.97;65.10;101171.13;5162124;28;20120;-73
2022/07/15 08:28:56;;;;;;;2.35;0.60;;;;;;;20.67;61.45;101166.38;5160560;28;20031;-73
2022/07/15 08:31:27;;;;;;;1.70;0.43;;;;;;;20.54;61.28;101168.19;5177226;28;20029;-74
2022/07/15 08:33:57;;;;;;;4.15;0.88;;;;;;;20.27;62.41;101170.00;5161020;28;20063;-73
2022/07/15 08:36:27;;;;;;;8.38;1.30;;;;;;;20.50;63.06;101171.13;5160630;28;20038;-70
2022/07/15 08:38:58;;;;;;;4.85;1.00;;;;;;;20.08;63.07;101165.97;5159840;28;20392;-74
2022/07/15 08:41:28;;;;;;;5.68;1.00;;;;;;;19.71;64.39;101174.56;5151891;28;20030;-73
2022/07/15 08:43:59;;;;;;;3.42;0.77;;;;;;;19.57;63.69;101175.47;5139499;28;20053;-73
2022/07/15 08:46:31;;;;;;;5.22;0.90;;;;;;;19.57;63.91;101167.50;5154499;28;20077;-73
2022/07/15 08:49:07;;;;;;;4.55;0.93;;;;;;;19.75;63.45;101176.94;5158891;28;20029;-74
2022/07/15 08:51:42;;;;;;;3.28;0.60;;;;;;;19.51;63.91;101183.81;5159545;28;20073;-73
2022/07/15 08:54:14;;;;;;;4.78;0.70;;;;;;;19.48;63.44;101178.66;5177054;28;20030;-73
2022/07/15 08:56:45;;;;;;;5.10;1.00;;;;;;;19.12;64.01;101175.59;5160103;28;20181;-73
2022/07/15 08:59:17;;;;;;;3.05;0.50;;;;;;;18.62;65.28;101192.84;5176461;28;20113;-73
2022/07/15 09:01:48;;;;;;;3.63;0.77;;;;;;;18.69;66.04;101201.28;5161348;28;20038;-73
2022/07/15 09:04:19;;;;;;;5.55;0.77;;;;;;;18.64;66.01;101196.25;5161093;28;20407;-73
2022/07/15 09:06:50;;;;;;;3.67;0.75;;;;;;;18.53;66.19;101195.19;5143120;28;20030;-73
2022/07/15 09:09:24;;;;;;;4.88;0.70;;;;;;;18.44;65.61;101199.22;5159439;28;20073;-73
2022/07/15 09:12:06;;;;;;;4.63;1.02;;;;;;;18.71;66.42;101199.38;5167296;28;20324;-73
2022/07/15 09:14:41;;;;;;;3.53;0.68;;;;;;;18.84;65.79;101196.78;5152134;28;20037;-73
2022/07/15 09:17:12;;;;;;;4.30;0.98;;;;;;;18.88;65.86;101189.47;5157757;28;20377;-73
2022/07/15 09:20:09;;;;;;;2.88;0.65;;;;;;;19.15;65.77;101194.00;5159321;28;20104;-73
2022/07/15 09:22:48;;;;;;;3.75;0.80;;;;;;;19.36;64.13;101198.00;5152056;28;20084;-73
2022/07/15 09:25:20;;;;;;;3.15;0.90;;;;;;;19.51;63.97;101193.56;5157143;28;20413;-73
2022/07/15 09:27:51;;;;;;;4.72;0.70;;;;;;;19.54;63.44;101198.66;5159200;28;20477;-73
2022/07/15 09:36:21;;;;;;;3.15;0.50;;;;;;;19.67;61.93;101203.13;5157211;28;20392;-73
2022/07/15 09:38:56;;;;;;;2.88;0.65;;;;;;;19.69;62.39;101198.56;5173989;28;20034;-73
2022/07/15 09:41:28;;;;;;;3.55;0.75;;;;;;;19.61;61.78;101206.13;5166615;28;20026;-73
2022/07/15 09:43:59;;;;;;;2.97;0.50;;;;;;;19.58;61.96;101206.34;5150924;28;20030;-73
2022/07/15 09:46:40;;;;;;;3.45;0.50;;;;;;;19.69;61.15;101203.00;5158574;28;20026;-73
2022/07/15 09:49:14;;;;;;;2.38;0.40;;;;;;;19.78;61.22;101200.63;5158671;28;20026;-74
2022/07/15 09:51:48;;;;;;;2.92;0.60;;;;;;;19.70;61.21;101205.56;5158960;28;20571;-73
2022/07/15 09:54:19;;;;;;;4.03;0.80;;;;;;;19.49;61.85;101200.75;5158905;28;20118;-73
2022/07/15 09:56:50;;;;;;;1.90;0.60;;;;;;;19.25;61.14;101216.38;5160980;28;20281;-73
2022/07/15 09:59:21;;;;;;;3.83;0.63;;;;;;;19.32;61.68;101215.06;5158466;28;20018;-75
2022/07/15 10:01:51;;;;;;;2.08;0.50;;;;;;;19.41;62.36;101214.47;5153909;28;20026;-73
2022/07/15 10:04:24;;;;;;;2.20;0.77;;;;;;;19.44;61.95;101221.41;5151465;28;20026;-74
2022/07/15 10:06:59;;;;;;;3.00;0.60;;;;;;;19.52;60.98;101214.69;5146640;28;20062;-73
2022/07/15 10:09:39;;;;;;;2.83;0.47;;;;;;;19.78;61.01;101213.06;5156042;28;20034;-75
2022/07/15 10:12:18;;;;;;;3.20;0.63;;;;;;;19.61;61.66;101216.75;5154553;28;20018;-74
2022/07/15 10:15:07;;;;;;;2.35;0.50;;;;;;;19.29;62.38;101209.09;5159529;28;20045;-73
2022/07/15 10:18:09;;;;;;;2.30;0.60;;;;;;;19.43;62.46;101220.53;5170720;28;20084;-73
2022/07/15 10:21:02;;;;;;;4.05;0.55;;;;;;;19.44;63.21;101218.75;5155468;28;20125;-73
2022/07/15 10:24:13;;;;;;;5.00;0.68;;;;;;;19.40;63.10;101218.09;5153962;28;20030;-75
2022/07/15 10:27:13;;;;;;;3.50;0.57;;;;;;;19.38;62.79;101213.81;5171481;28;20042;-75
2022/07/15 10:29:44;;;;;;;3.05;0.70;;;;;;;19.51;63.52;101205.03;5153286;28;20038;-76
2022/07/15 10:32:14;;;;;;;2.83;0.80;;;;;;;19.55;63.67;101201.22;5156405;28;20610;-76
2022/07/15 10:34:44;;;;;;;1.95;0.50;;;;;;;20.00;62.80;101203.63;5174024;28;20033;-75
2022/07/15 10:37:15;;;;;;;4.22;0.80;;;;;;;19.94;61.69;101198.69;5156775;28;20198;-75
2022/07/15 10:39:53;;;;;;;2.95;0.65;;;;;;;19.92;64.13;101205.06;5153135;28;20496;-76
2022/07/15 10:42:24;;;;;;;3.67;0.77;;;;;;;20.19;60.92;101204.19;5165542;28;20026;-75
2022/07/15 10:45:05;;;;;;;3.13;0.70;;;;;;;20.67;59.72;101195.59;5148707;28;20487;-77
2022/07/15 10:47:36;;;;;;;2.17;0.60;;;;;;;20.66;58.20;101207.19;5156117;28;20443;-77
2022/07/15 10:50:36;;;;;;;5.22;0.73;;;;;;;20.71;58.33;101197.97;5156959;28;20026;-76
2022/07/15 10:53:20;;;;;;;4.82;0.52;;;;;;;20.79;57.83;101194.78;5154880;28;20122;-76
2022/07/15 10:55:51;;;;;;;4.85;0.60;;;;;;;20.61;59.17;101201.34;5157698;28;20033;-76
2022/07/15 10:58:22;;;;;;;2.35;0.50;;;;;;;20.53;59.06;101202.81;5157024;28;20018;-76
2022/07/15 11:00:52;;;;;;;2.35;0.65;;;;;;;20.53;58.63;101193.03;5157917;28;20420;-74
2022/07/15 11:03:23;;;;;;;2.67;0.60;;;;;;;20.62;58.43;101195.06;5157696;28;20036;-75
2022/07/15 11:05:53;;;;;;;3.25;0.50;;;;;;;20.61;58.31;101196.03;5153898;28;20034;-74
2022/07/15 11:08:40;;;;;;;2.28;0.63;;;;;;;20.59;59.60;101186.44;5157182;28;20050;-73
2022/07/15 11:11:13;;;;;;;1.73;0.50;;;;;;;20.47;59.06;101201.41;5155699;28;20027;-75
2022/07/15 11:13:46;;;;;;;2.33;0.70;;;;;;;20.73;59.87;101189.91;5155585;28;20526;-74
2022/07/15 11:16:19;;;;;;;2.65;0.68;;;;;;;20.40;60.57;101192.16;5156554;28;20038;-74
2022/07/15 11:18:52;;;;;;;2.92;0.68;;;;;;;20.67;59.86;101192.94;5157403;28;20084;-75
2022/07/15 11:21:23;;;;;;;3.90;0.60;;;;;;;21.10;59.68;101189.94;5158849;28;20281;-75
2022/07/15 11:23:54;;;;;;;3.63;0.70;;;;;;;21.04;59.37;101194.88;5161282;28;20484;-75
2022/07/15 11:26:48;;;;;;;4.15;0.73;;;;;;;21.14;59.15;101196.78;5160547;28;20065;-75
2022/07/15 11:29:18;;;;;;;4.47;0.77;;;;;;;21.22;58.33;101201.56;5177549;28;20143;-76
2022/07/15 11:31:48;;;;;;;2.97;0.60;;;;;;;21.58;59.30;101202.47;5160739;28;20483;-75
2022/07/15 11:34:20;;;;;;;2.22;0.47;;;;;;;21.83;59.31;101196.28;5160804;28;20030;-73
2022/07/15 11:36:58;;;;;;;4.57;0.80;;;;;;;21.50;57.73;101188.88;5143826;28;20122;-76
2022/07/15 11:39:29;;;;;;;3.42;0.60;;;;;;;21.69;57.89;101196.44;5171429;28;20041;-76
2022/07/15 11:44:49;;;;;;;1.10;0.45;;;;;;;21.22;58.39;101189.13;5156620;28;20495;-75
2022/07/15 11:47:20;;;;;;;2.97;0.65;;;;;;;21.51;58.50;101195.91;5159423;28;20579;-77
2022/07/15 11:49:50;;;;;;;2.47;0.57;;;;;;;21.48;58.85;101184.63;5160235;28;20073;-76
2022/07/15 11:52:25;;;;;;;3.05;0.60;;;;;;;21.80;58.76;101175.22;5159681;28;20088;-74
2022/07/15 11:54:56;;;;;;;4.75;0.70;;;;;;;21.95;58.11;101172.28;5173681;28;20223;-76
2022/07/15 11:57:32;;;;;;;2.03;0.47;;;;;;;22.12;58.12;101166.59;5157500;28;20030;-75